Flight Track Log - Related Links

Times and Time Zones

All times are in EDT time to prevent confusion due to time zone crossing. See the N960DL flight status page for this flight to view local times or setup timezone preferences in your user account.

Time Position Orientation Groundspeed Altitude Reporting Facility
EDT Latitude Longitude Course Direction KTS MPH feet Rate Location/Type
Wed 01:56:04 PM 38.7333 -90.3333 130° Southeast 154 177 1,700  Level Gateway (St. Louis) TRACON
Wed 01:56:58 PM 38.7000 -90.2667 123° Southeast 236 272 2,700 1,610 Climbing Gateway (St. Louis) TRACON
Wed 01:57:26 PM 38.6828 -90.2436 134° Southeast 264 304 3,900 2,933 Climbing Kansas City Center
Wed 01:58:00 PM 38.5277 -90.0883 132° Southeast  Level Estimated
Wed 01:58:28 PM 38.6364 -90.1703 129° Southeast 263 303 7,100  Level Kansas City Center
Wed 01:59:00 PM 38.4538 -89.9948 127° Southeast  Level Estimated
Wed 01:59:30 PM 38.5806 -90.0878 131° Southeast 268 308 10,400  Level Kansas City Center
Wed 02:00:00 PM 38.4103 -89.8743 115° Southeast  Level FlightAware Approximate
Wed 02:00:32 PM 38.5319 -90.0158 131° Southeast 294 338 11,400  Level Kansas City Center
Wed 02:01:00 PM 38.3359 -89.7816 130° Southeast  Level Estimated
Wed 02:01:34 PM 38.4669 -89.9139 129° Southeast 357 411 13,200  Level Kansas City Center
Wed 02:02:36 PM 38.3808 -89.7864 131° Southeast 389 448 16,200 2,468 Climbing Kansas City Center
Wed 02:03:38 PM 38.3042 -89.6681 130° Southeast 412 474 18,300 1,984 Climbing Kansas City Center
Wed 02:04:40 PM 38.2264 -89.5553 131° Southeast 425 489 20,300 1,935 Climbing Kansas City Center
Wed 02:05:42 PM 38.1397 -89.4317 132° Southeast 436 502 22,300 1,632 Climbing Kansas City Center
Wed 02:06:45 PM 38.0572 -89.3136 132° Southeast 447 514 23,700 1,680 Climbing Kansas City Center
Wed 02:07:47 PM 37.9661 -89.1842 132° Southeast 456 525 25,800 1,597 Climbing Kansas City Center
Wed 02:08:49 PM 37.8817 -89.0639 132° Southeast 460 529 27,000 1,306 Climbing Kansas City Center
Wed 02:09:51 PM 37.7972 -88.9450 132° Southeast 468 539 28,500 1,500 Climbing Kansas City Center
Wed 02:10:53 PM 37.7119 -88.8222 131° Southeast 464 534 30,100 1,645 Climbing Kansas City Center
Wed 02:11:55 PM 37.6183 -88.6950 133° Southeast 452 520 31,900 1,355 Climbing Kansas City Center
Wed 02:12:57 PM 37.5394 -88.5828 132° Southeast 436 502 32,900 896 Climbing Kansas City Center
Wed 02:14:09 PM 37.4378 -88.4397 132° Southeast 448 516 33,900 864 Climbing Memphis Center
Wed 02:15:09 PM 37.3547 -88.3244 132° Southeast 448 516 34,800 550 Climbing Memphis Center
Wed 02:16:09 PM 37.2844 -88.2219 131° Southeast 443 510 35,000 100 Climbing Memphis Center
Wed 02:17:09 PM 37.1906 -88.0969 133° Southeast 438 504 35,000  Level Memphis Center
Wed 02:18:09 PM 37.1178 -87.9975 133° Southeast 447 514 35,000  Level Memphis Center
Wed 02:19:09 PM 37.0364 -87.8856 132° Southeast 435 501 35,000  Level Memphis Center
Wed 02:20:09 PM 36.9528 -87.7714 132° Southeast 435 501 35,000  Level Memphis Center
Wed 02:21:09 PM 36.8733 -87.6622 132° Southeast 435 501 35,000  Level Memphis Center
Wed 02:22:09 PM 36.7917 -87.5511 133° Southeast 435 501 35,000  Level Memphis Center
Wed 02:23:09 PM 36.7100 -87.4428 133° Southeast 435 501 35,000  Level Memphis Center
Wed 02:24:09 PM 36.6217 -87.3217 132° Southeast 435 501 35,000  Level Memphis Center
Wed 02:25:09 PM 36.5397 -87.2139 133° Southeast 435 501 35,000  Level Memphis Center
Wed 02:26:09 PM 36.4578 -87.1061 133° Southeast 435 501 35,000  Level Memphis Center
Wed 02:27:09 PM 36.3778 -86.9958 132° Southeast 435 501 35,000  Level Memphis Center
Wed 02:28:09 PM 36.3000 -86.8986 135° Southeast 435 501 35,000  Level Memphis Center
Wed 02:29:09 PM 36.2156 -86.7864 133° Southeast 440 506 35,000 -800 Level Memphis Center
Wed 02:30:09 PM 36.1375 -86.6819 133° Southeast 427 491 33,400 -1,000 Descending Memphis Center
Wed 02:31:09 PM 36.0306 -86.5917 146° Southeast 420 483 33,000 -200 Descending Memphis Center
Wed 02:32:09 PM 35.9300 -86.5117 147° Southeast 425 489 33,000  Level Memphis Center
Wed 02:34:04 PM 35.7506 -86.3672 147° Southeast 438 504 33,000  Level Atlanta Center
Wed 02:35:04 PM 35.6497 -86.2878 147° Southeast 433 498 33,000  Level Atlanta Center
Wed 02:36:04 PM 35.5489 -86.2083 147° Southeast 433 498 33,000  Level Atlanta Center
Wed 02:37:04 PM 35.4625 -86.1397 147° Southeast 427 491 33,000  Level Atlanta Center
Wed 02:38:04 PM 35.3431 -86.0478 148° Southeast 427 491 33,000 -250 Level Atlanta Center
Wed 02:39:04 PM 35.2442 -85.9689 147° Southeast 427 491 32,500 -1,250 Descending Atlanta Center
Wed 02:40:04 PM 35.1472 -85.8906 147° Southeast 427 491 30,500 -1,650 Descending Atlanta Center
Wed 02:41:04 PM 35.0483 -85.8097 146° Southeast 427 491 29,200 -1,200 Descending Atlanta Center
Wed 02:42:04 PM 34.9492 -85.7342 148° Southeast 427 491 28,100 -1,050 Descending Atlanta Center
Wed 02:43:04 PM 34.8478 -85.6686 152° Southeast 422 486 27,100 -750 Descending Atlanta Center
Wed 02:44:04 PM 34.7433 -85.6819 186° South 377 434 26,600 -550 Descending Atlanta Center
Wed 02:45:04 PM 34.6433 -85.6647 172° South 366 421 26,000 -650 Descending Atlanta Center
Wed 02:46:04 PM 34.5672 -85.5825 138° Southeast 347 399 25,300 -1,100 Descending Atlanta Center
Wed 02:47:04 PM 34.4953 -85.5006 137° Southeast 352 405 23,800 -1,700 Descending Atlanta Center
Wed 02:48:04 PM 34.4231 -85.4164 136° Southeast 357 411 21,900 -1,850 Descending Atlanta Center
Wed 02:49:04 PM 34.3550 -85.3397 137° Southeast 344 396 20,100 -1,600 Descending Atlanta Center
Wed 02:50:04 PM 34.2994 -85.2708 134° Southeast 326 375 18,700 -1,550 Descending Atlanta Center
Wed 02:51:04 PM 34.2356 -85.1997 137° Southeast 311 358 17,000 -1,700 Descending Atlanta Center
Wed 02:52:04 PM 34.1756 -85.1311 137° Southeast 311 358 15,300 -1,700 Descending Atlanta Center
Wed 02:53:04 PM 34.1178 -85.0600 134° Southeast 306 352 13,600 -1,200 Descending Atlanta Center
Wed 02:54:04 PM 34.0639 -84.9942 135° Southeast 285 328 12,900 -900 Descending Atlanta Center
Wed 02:55:04 PM 33.9847 -84.9758 169° South 269 310 11,800 -1,050 Descending Atlanta Center
Wed 02:56:04 PM 33.9097 -84.9600 170° South 281 323 10,800 -1,100 Descending Atlanta Center
Wed 02:57:04 PM 33.8453 -84.9467 170° South 256 295 9,600 -1,150 Descending Atlanta Center
Wed 02:58:04 PM 33.7806 -84.9336 170° South 243 280 8,500 -800 Descending Atlanta Center
Wed 02:59:04 PM 33.7117 -84.9203 171° South 234 269 8,000 -474 Descending Atlanta Center
Wed 03:01:14 PM 33.6333 -84.8333 137° Southeast 216 249 7,000 -632 Descending Atlanta TRACON
Wed 03:02:14 PM 33.6333 -84.7667 90° East 186 214 6,000 -950 Descending Atlanta TRACON
Wed 03:03:14 PM 33.6333 -84.7000 90° East 175 201 5,100 -900 Descending Atlanta TRACON
Wed 03:04:14 PM 33.6333 -84.6500 90° East 171 197 4,200 -900 Descending Atlanta TRACON

Login

Don't have an account? Register now (free) for customized features, flight alerts, and more!